createdAt,value
2019-01-16T00:00:15.222Z,5.30
2019-01-16T00:04:34.474Z,5.53
2019-01-16T00:09:08.309Z,5.00
2019-01-16T00:13:23.963Z,5.90
2019-01-16T00:17:44.751Z,5.63
2019-01-16T00:26:47.913Z,4.73
2019-01-16T00:31:28.639Z,4.60
2019-01-16T00:36:12.353Z,5.10
2019-01-16T00:40:33.538Z,4.60
2019-01-16T00:44:52.817Z,5.20
2019-01-16T00:49:11.813Z,5.73
2019-01-16T00:53:31.182Z,4.90
2019-01-16T00:57:47.708Z,6.00
2019-01-16T01:02:22.249Z,4.63
2019-01-16T01:10:55.374Z,5.57
2019-01-16T01:15:36.267Z,5.90
2019-01-16T01:20:16.946Z,5.27
2019-01-16T01:24:57.693Z,5.50
2019-01-16T01:34:07.669Z,5.23
2019-01-16T01:38:48.362Z,6.20
2019-01-16T01:43:04.219Z,5.50
2019-01-16T01:47:38.731Z,6.47
2019-01-16T01:52:00.249Z,6.00
2019-01-16T01:56:24.408Z,6.90
2019-01-16T02:01:05.453Z,7.77
2019-01-16T02:09:38.971Z,6.80
2019-01-16T02:14:19.599Z,6.20
2019-01-16T02:23:28.956Z,6.40
2019-01-16T02:28:09.697Z,5.77
2019-01-16T02:32:50.440Z,7.30
2019-01-16T02:41:23.792Z,8.50
2019-01-16T02:45:57.763Z,7.80
2019-01-16T02:50:14.483Z,7.70
2019-01-16T02:54:48.111Z,8.73
2019-01-16T02:59:03.947Z,8.10
2019-01-16T03:03:22.695Z,6.73
2019-01-16T03:12:08.052Z,8.13
2019-01-16T03:16:29.895Z,7.60
2019-01-16T03:25:17.137Z,6.30
2019-01-16T03:29:51.806Z,7.40
2019-01-16T03:34:13.715Z,7.53
2019-01-16T03:38:34.452Z,6.57
2019-01-16T03:43:08.697Z,7.20
2019-01-16T03:47:24.541Z,6.90
2019-01-16T03:51:45.317Z,6.63
2019-01-16T03:56:25.955Z,13.97
2019-01-16T04:01:06.675Z,9.17
2019-01-16T04:05:47.297Z,5.60
2019-01-16T04:10:29.751Z,6.10
2019-01-16T04:15:10.397Z,5.57
2019-01-16T04:19:51.137Z,5.67
2019-01-16T04:29:14.008Z,5.77
2019-01-16T04:43:05.930Z,5.57
2019-01-16T04:47:22.471Z,5.47
2019-01-16T04:51:41.211Z,5.53
2019-01-16T04:56:15.732Z,6.27
2019-01-16T05:00:34.181Z,6.57
2019-01-16T05:05:07.877Z,6.00
2019-01-16T05:09:23.681Z,4.97
2019-01-16T05:18:13.882Z,5.50
2019-01-16T05:22:36.652Z,7.20
2019-01-16T05:27:17.421Z,5.00
2019-01-16T05:36:29.432Z,6.70
2019-01-16T05:40:50.329Z,6.60
2019-01-16T05:45:23.989Z,7.27
2019-01-16T05:49:46.926Z,6.97
2019-01-16T05:54:21.802Z,5.70
2019-01-16T06:03:06.445Z,5.57
2019-01-16T06:07:22.052Z,5.60
2019-01-16T06:11:55.889Z,6.00
2019-01-16T06:16:30.460Z,6.17
2019-01-16T06:20:49.339Z,5.27
2019-01-16T06:25:10.115Z,6.30
2019-01-16T06:29:50.826Z,6.13
2019-01-16T06:34:31.454Z,6.33
2019-01-16T06:39:12.145Z,6.57
2019-01-16T06:43:52.754Z,6.97
2019-01-16T06:48:08.910Z,5.97
2019-01-16T06:52:27.565Z,6.83
2019-01-16T06:56:43.521Z,6.87
2019-01-16T07:01:18.014Z,6.40
2019-01-16T07:05:52.569Z,6.43
2019-01-16T07:10:11.564Z,6.73
2019-01-16T07:14:27.913Z,7.10
2019-01-16T07:18:44.386Z,7.73
2019-01-16T07:23:06.028Z,7.57
2019-01-16T07:27:23.089Z,7.37
2019-01-16T07:31:39.327Z,7.83
2019-01-16T07:36:13.058Z,7.87
2019-01-16T07:40:32.635Z,8.30
2019-01-16T07:45:07.582Z,9.07
2019-01-16T07:49:24.217Z,9.23
2019-01-16T07:53:57.940Z,8.27
2019-01-16T07:58:31.748Z,8.97
2019-01-16T08:03:05.804Z,8.80
2019-01-16T08:07:39.445Z,8.00
2019-01-16T08:12:14.053Z,9.13
2019-01-16T08:16:48.120Z,9.03
2019-01-16T08:21:04.725Z,9.40
2019-01-16T08:25:38.749Z,9.93
2019-01-16T08:29:57.754Z,10.10
2019-01-16T08:34:16.592Z,10.93
2019-01-16T08:38:51.340Z,10.33
2019-01-16T08:43:07.910Z,9.70
2019-01-16T08:47:42.228Z,9.77
2019-01-16T08:52:01.110Z,9.80
2019-01-16T08:56:35.404Z,7.90
2019-01-16T09:00:56.253Z,8.17
2019-01-16T09:05:36.862Z,9.87
2019-01-16T09:19:15.417Z,8.37
2019-01-16T09:23:56.202Z,9.27
2019-01-16T09:28:36.890Z,9.20
2019-01-16T09:33:17.585Z,7.90
2019-01-16T09:37:58.373Z,8.23
2019-01-16T09:42:39.087Z,8.23
2019-01-16T09:46:54.838Z,8.43
2019-01-16T09:51:11.449Z,7.40
2019-01-16T09:59:55.503Z,7.03
2019-01-16T10:04:17.104Z,6.77
2019-01-16T10:08:35.932Z,10.67
2019-01-16T10:17:38.116Z,6.80
2019-01-16T10:22:11.845Z,7.10
2019-01-16T10:26:46.881Z,6.23
2019-01-16T10:31:07.838Z,5.97
2019-01-16T10:35:48.503Z,14.23
2019-01-16T10:40:29.276Z,6.47
2019-01-16T10:49:02.297Z,6.03
2019-01-16T10:53:36.682Z,6.07
2019-01-16T10:58:12.672Z,6.47
2019-01-16T11:02:47.385Z,6.73
2019-01-16T11:07:07.122Z,10.57
2019-01-16T11:16:10.496Z,7.20
2019-01-16T11:20:45.426Z,6.17
2019-01-16T11:25:19.431Z,7.50
2019-01-16T11:29:37.951Z,6.63
2019-01-16T11:33:53.974Z,6.43
2019-01-16T11:38:10.762Z,5.63
2019-01-16T11:42:27.364Z,6.93
2019-01-16T11:47:01.747Z,8.63
2019-01-16T11:51:18.925Z,5.60
2019-01-16T11:55:53.057Z,4.60
2019-01-16T12:00:09.692Z,5.13
2019-01-16T12:04:25.532Z,4.90
2019-01-16T12:08:44.937Z,5.20
2019-01-16T12:13:01.481Z,5.37
2019-01-16T12:17:35.101Z,5.70
2019-01-16T12:21:51.478Z,4.90
2019-01-16T12:30:38.412Z,5.50
2019-01-16T12:35:11.954Z,6.00
2019-01-16T12:39:33.323Z,5.27
2019-01-16T12:44:06.716Z,6.63
2019-01-16T12:48:40.675Z,5.47
2019-01-16T12:52:56.519Z,5.30
2019-01-16T12:57:16.211Z,5.77
2019-01-16T13:01:50.805Z,5.33
2019-01-16T13:10:42.381Z,5.40
2019-01-16T13:15:16.183Z,5.57
2019-01-16T13:19:50.636Z,6.17
2019-01-16T13:24:06.377Z,5.90
2019-01-16T13:28:27.226Z,6.83
2019-01-16T13:33:07.846Z,5.57
2019-01-16T13:42:17.827Z,6.73
2019-01-16T13:46:36.783Z,6.60
2019-01-16T13:55:09.896Z,6.83
2019-01-16T13:59:50.706Z,7.73
2019-01-16T14:09:13.613Z,7.20
2019-01-16T14:14:00.486Z,8.63
2019-01-16T14:18:37.002Z,7.93
2019-01-16T14:23:17.712Z,7.87
2019-01-16T14:36:55.663Z,8.63
2019-01-16T14:41:18.455Z,8.07
2019-01-16T14:45:59.290Z,8.43
2019-01-16T14:50:15.264Z,8.67
2019-01-16T15:07:36.890Z,8.33
2019-01-16T15:12:17.490Z,8.70
2019-01-16T15:16:38.345Z,9.07
2019-01-16T15:21:18.965Z,9.03
2019-01-16T15:25:59.560Z,7.20
2019-01-16T15:30:40.186Z,8.83
2019-01-16T15:39:45.276Z,8.27
2019-01-16T15:44:06.020Z,7.10
2019-01-16T15:48:40.064Z,7.43
2019-01-16T15:52:58.651Z,7.23
2019-01-16T15:57:18.021Z,7.27
2019-01-16T16:01:38.904Z,9.93
2019-01-16T16:06:19.610Z,9.33
2019-01-16T16:10:41.363Z,9.27
2019-01-16T16:15:22.986Z,10.93
2019-01-16T16:24:32.522Z,11.03
2019-01-16T16:29:13.130Z,12.63
2019-01-16T16:33:53.710Z,11.73
2019-01-16T16:38:34.536Z,11.60
2019-01-16T16:43:15.280Z,11.50
2019-01-16T16:52:04.980Z,12.17
2019-01-16T16:56:45.796Z,12.97
2019-01-16T17:05:35.841Z,14.30
2019-01-16T17:10:16.547Z,13.67
2019-01-16T17:14:37.351Z,12.90
2019-01-16T17:19:18.171Z,12.87
2019-01-16T17:23:58.883Z,15.53
2019-01-16T17:28:39.474Z,14.50
2019-01-16T17:33:20.165Z,13.43
2019-01-16T17:38:00.899Z,13.87
2019-01-16T17:42:21.954Z,13.93
2019-01-16T17:51:27.755Z,10.63
2019-01-16T17:56:02.273Z,13.30
2019-01-16T18:00:44.893Z,12.63
2019-01-16T18:05:25.614Z,11.23
2019-01-16T18:10:06.340Z,13.63
2019-01-16T18:14:48.875Z,12.43
2019-01-16T18:19:29.594Z,13.67
2019-01-16T18:23:50.457Z,12.00
2019-01-16T18:28:31.520Z,12.53
2019-01-16T18:37:42.374Z,12.40
2019-01-16T18:42:24.531Z,11.83
2019-01-16T18:46:45.649Z,11.07
2019-01-16T18:51:01.904Z,12.27
2019-01-16T18:55:17.934Z,14.60
2019-01-16T18:59:38.805Z,15.17
2019-01-16T19:03:59.686Z,14.00
2019-01-16T19:08:40.327Z,15.50
2019-01-16T19:13:01.055Z,13.10
2019-01-16T19:17:22.429Z,14.23
2019-01-16T19:22:03.127Z,13.20
2019-01-16T19:26:43.939Z,14.33
2019-01-16T19:31:24.813Z,16.35
2019-01-16T19:36:07.810Z,15.10
2019-01-16T19:40:48.895Z,14.17
2019-01-16T19:45:09.675Z,14.77
2019-01-16T19:49:30.981Z,13.90
2019-01-16T19:53:51.809Z,16.33
2019-01-16T19:58:32.654Z,14.50
2019-01-16T20:03:13.515Z,14.87
2019-01-16T20:07:54.351Z,14.73
2019-01-16T20:17:37.168Z,14.63
2019-01-16T20:22:17.772Z,16.07
2019-01-16T20:26:58.543Z,14.43
2019-01-16T20:36:08.212Z,14.37
2019-01-16T20:40:50.724Z,13.73
2019-01-16T20:45:31.608Z,13.53
2019-01-16T20:50:06.113Z,16.93
2019-01-16T20:58:55.324Z,14.77
2019-01-16T21:08:21.306Z,16.07
2019-01-16T21:13:01.916Z,16.63
2019-01-16T21:17:42.648Z,18.00
2019-01-16T21:22:03.376Z,17.23
2019-01-16T21:26:26.136Z,15.60
2019-01-16T21:31:09.441Z,16.00
2019-01-16T21:35:50.106Z,15.93
2019-01-16T21:40:11.033Z,15.37
2019-01-16T21:49:16.771Z,16.53
2019-01-16T21:53:51.271Z,15.77
2019-01-16T21:58:25.105Z,13.50
2019-01-16T22:03:10.343Z,15.27
2019-01-16T22:07:31.187Z,14.27
2019-01-16T22:12:11.926Z,13.53
2019-01-16T22:29:20.447Z,12.70
2019-01-16T22:42:59.063Z,12.23
2019-01-16T22:47:39.705Z,13.23
2019-01-16T22:52:13.727Z,12.53
2019-01-16T22:56:32.572Z,11.67
2019-01-16T23:00:54.503Z,9.20
2019-01-16T23:05:29.296Z,9.47
2019-01-16T23:09:45.100Z,9.97
2019-01-16T23:14:03.680Z,9.00
2019-01-16T23:18:22.510Z,9.23
2019-01-16T23:22:43.259Z,9.10
2019-01-16T23:27:03.988Z,8.77
2019-01-16T23:31:44.582Z,8.70
2019-01-16T23:36:25.201Z,8.67
2019-01-16T23:45:37.340Z,7.90
2019-01-16T23:50:11.365Z,9.17
2019-01-16T23:54:27.499Z,5.70
2019-01-16T23:58:42.242Z,5.90
